sensor_id;sensor_type;location;lat;lon;timestamp;P1;durP1;ratioP1;P2;durP2;ratioP2
6420;SDS011;3243;50.958;7.012;2022-12-08T00:03:32;26.17;;;16.47;;
6420;SDS011;3243;50.958;7.012;2022-12-08T00:06:00;22.07;;;15.83;;
6420;SDS011;3243;50.958;7.012;2022-12-08T00:08:47;24.33;;;16.60;;
6420;SDS011;3243;50.958;7.012;2022-12-08T00:11:33;21.03;;;14.27;;
6420;SDS011;3243;50.958;7.012;2022-12-08T00:14:00;20.93;;;14.67;;
6420;SDS011;3243;50.958;7.012;2022-12-08T00:16:29;22.43;;;14.20;;
6420;SDS011;3243;50.958;7.012;2022-12-08T00:18:56;22.00;;;15.37;;
6420;SDS011;3243;50.958;7.012;2022-12-08T00:21:23;20.43;;;14.70;;
6420;SDS011;3243;50.958;7.012;2022-12-08T00:23:53;21.37;;;14.90;;
6420;SDS011;3243;50.958;7.012;2022-12-08T00:26:20;19.30;;;14.73;;
6420;SDS011;3243;50.958;7.012;2022-12-08T00:28:47;19.37;;;13.97;;
6420;SDS011;3243;50.958;7.012;2022-12-08T00:31:13;20.07;;;13.87;;
6420;SDS011;3243;50.958;7.012;2022-12-08T00:33:40;22.17;;;15.07;;
6420;SDS011;3243;50.958;7.012;2022-12-08T00:36:12;21.40;;;14.27;;
6420;SDS011;3243;50.958;7.012;2022-12-08T00:38:39;21.83;;;14.40;;
6420;SDS011;3243;50.958;7.012;2022-12-08T00:41:08;20.47;;;14.03;;
6420;SDS011;3243;50.958;7.012;2022-12-08T00:43:37;18.17;;;13.53;;
6420;SDS011;3243;50.958;7.012;2022-12-08T00:46:06;21.97;;;14.03;;
6420;SDS011;3243;50.958;7.012;2022-12-08T00:48:34;17.70;;;14.10;;
6420;SDS011;3243;50.958;7.012;2022-12-08T00:51:01;18.90;;;13.87;;
6420;SDS011;3243;50.958;7.012;2022-12-08T00:53:29;20.50;;;14.83;;
6420;SDS011;3243;50.958;7.012;2022-12-08T00:55:57;21.30;;;14.83;;
6420;SDS011;3243;50.958;7.012;2022-12-08T00:58:24;19.83;;;14.97;;
6420;SDS011;3243;50.958;7.012;2022-12-08T01:00:51;23.97;;;15.93;;
6420;SDS011;3243;50.958;7.012;2022-12-08T01:03:18;22.67;;;15.03;;
6420;SDS011;3243;50.958;7.012;2022-12-08T01:05:45;21.60;;;14.40;;
6420;SDS011;3243;50.958;7.012;2022-12-08T01:08:12;22.40;;;14.03;;
6420;SDS011;3243;50.958;7.012;2022-12-08T01:10:39;26.63;;;16.37;;
6420;SDS011;3243;50.958;7.012;2022-12-08T01:13:06;20.10;;;13.50;;
6420;SDS011;3243;50.958;7.012;2022-12-08T01:15:34;20.87;;;14.23;;
6420;SDS011;3243;50.958;7.012;2022-12-08T01:18:01;22.23;;;15.53;;
6420;SDS011;3243;50.958;7.012;2022-12-08T01:20:27;21.60;;;15.03;;
6420;SDS011;3243;50.958;7.012;2022-12-08T01:22:54;19.50;;;14.60;;
6420;SDS011;3243;50.958;7.012;2022-12-08T01:25:21;24.77;;;15.57;;
6420;SDS011;3243;50.958;7.012;2022-12-08T01:27:48;20.07;;;14.83;;
6420;SDS011;3243;50.958;7.012;2022-12-08T01:30:17;22.23;;;15.10;;
6420;SDS011;3243;50.958;7.012;2022-12-08T01:32:44;20.00;;;15.60;;
6420;SDS011;3243;50.958;7.012;2022-12-08T01:35:12;25.17;;;14.80;;
6420;SDS011;3243;50.958;7.012;2022-12-08T01:37:39;18.63;;;13.80;;
6420;SDS011;3243;50.958;7.012;2022-12-08T01:40:06;22.13;;;15.00;;
6420;SDS011;3243;50.958;7.012;2022-12-08T01:42:33;22.13;;;15.10;;
6420;SDS011;3243;50.958;7.012;2022-12-08T01:45:06;21.67;;;15.23;;
6420;SDS011;3243;50.958;7.012;2022-12-08T01:47:40;21.63;;;15.87;;
6420;SDS011;3243;50.958;7.012;2022-12-08T01:50:09;22.10;;;15.33;;
6420;SDS011;3243;50.958;7.012;2022-12-08T01:52:38;22.27;;;14.97;;
6420;SDS011;3243;50.958;7.012;2022-12-08T01:55:11;18.47;;;14.53;;
6420;SDS011;3243;50.958;7.012;2022-12-08T01:57:46;20.30;;;14.93;;
6420;SDS011;3243;50.958;7.012;2022-12-08T02:00:15;20.27;;;15.80;;
6420;SDS011;3243;50.958;7.012;2022-12-08T02:02:52;24.93;;;14.67;;
6420;SDS011;3243;50.958;7.012;2022-12-08T02:05:20;19.07;;;13.90;;
6420;SDS011;3243;50.958;7.012;2022-12-08T02:07:48;19.27;;;14.47;;
6420;SDS011;3243;50.958;7.012;2022-12-08T02:10:17;18.47;;;14.37;;
6420;SDS011;3243;50.958;7.012;2022-12-08T02:12:45;19.20;;;13.70;;
6420;SDS011;3243;50.958;7.012;2022-12-08T02:15:13;19.10;;;14.43;;
6420;SDS011;3243;50.958;7.012;2022-12-08T02:22:57;18.40;;;13.50;;
6420;SDS011;3243;50.958;7.012;2022-12-08T02:28:02;18.07;;;12.50;;
6420;SDS011;3243;50.958;7.012;2022-12-08T02:43:30;17.97;;;11.03;;
6420;SDS011;3243;50.958;7.012;2022-12-08T02:45:59;13.90;;;9.93;;
6420;SDS011;3243;50.958;7.012;2022-12-08T02:48:31;13.87;;;9.47;;
6420;SDS011;3243;50.958;7.012;2022-12-08T02:50:59;15.43;;;10.50;;
6420;SDS011;3243;50.958;7.012;2022-12-08T02:53:27;16.20;;;10.50;;
6420;SDS011;3243;50.958;7.012;2022-12-08T02:58:33;12.03;;;9.63;;
6420;SDS011;3243;50.958;7.012;2022-12-08T03:03:36;13.33;;;9.27;;
6420;SDS011;3243;50.958;7.012;2022-12-08T03:08:54;13.67;;;9.73;;
6420;SDS011;3243;50.958;7.012;2022-12-08T03:11:26;13.13;;;9.53;;
6420;SDS011;3243;50.958;7.012;2022-12-08T03:13:55;16.03;;;9.60;;
6420;SDS011;3243;50.958;7.012;2022-12-08T03:16:25;15.27;;;9.80;;
6420;SDS011;3243;50.958;7.012;2022-12-08T03:19:00;15.40;;;9.73;;
6420;SDS011;3243;50.958;7.012;2022-12-08T03:21:32;13.00;;;10.00;;
6420;SDS011;3243;50.958;7.012;2022-12-08T03:24:01;15.40;;;9.70;;
6420;SDS011;3243;50.958;7.012;2022-12-08T03:26:35;13.77;;;9.50;;
6420;SDS011;3243;50.958;7.012;2022-12-08T03:29:04;13.07;;;9.17;;
6420;SDS011;3243;50.958;7.012;2022-12-08T03:31:32;13.33;;;9.67;;
6420;SDS011;3243;50.958;7.012;2022-12-08T03:34:02;16.83;;;9.83;;
6420;SDS011;3243;50.958;7.012;2022-12-08T03:36:30;13.73;;;9.93;;
6420;SDS011;3243;50.958;7.012;2022-12-08T03:38:57;13.33;;;8.97;;
6420;SDS011;3243;50.958;7.012;2022-12-08T03:41:25;13.93;;;9.07;;
6420;SDS011;3243;50.958;7.012;2022-12-08T03:43:53;14.07;;;9.50;;
6420;SDS011;3243;50.958;7.012;2022-12-08T03:46:22;14.87;;;9.50;;
6420;SDS011;3243;50.958;7.012;2022-12-08T03:48:49;13.43;;;9.70;;
6420;SDS011;3243;50.958;7.012;2022-12-08T03:51:17;15.43;;;9.87;;
6420;SDS011;3243;50.958;7.012;2022-12-08T03:53:44;16.23;;;9.80;;
6420;SDS011;3243;50.958;7.012;2022-12-08T03:58:52;12.50;;;9.87;;
6420;SDS011;3243;50.958;7.012;2022-12-08T04:01:19;18.30;;;10.83;;
6420;SDS011;3243;50.958;7.012;2022-12-08T04:03:47;13.53;;;10.97;;
6420;SDS011;3243;50.958;7.012;2022-12-08T04:06:14;16.00;;;9.80;;
6420;SDS011;3243;50.958;7.012;2022-12-08T04:08:41;14.77;;;10.80;;
6420;SDS011;3243;50.958;7.012;2022-12-08T04:11:08;13.13;;;10.40;;
6420;SDS011;3243;50.958;7.012;2022-12-08T04:13:36;14.37;;;10.30;;
6420;SDS011;3243;50.958;7.012;2022-12-08T04:16:03;17.77;;;10.90;;
6420;SDS011;3243;50.958;7.012;2022-12-08T04:18:31;14.57;;;10.53;;
6420;SDS011;3243;50.958;7.012;2022-12-08T04:20:59;13.90;;;9.70;;
6420;SDS011;3243;50.958;7.012;2022-12-08T04:23:26;17.47;;;10.47;;
6420;SDS011;3243;50.958;7.012;2022-12-08T04:25:53;13.60;;;10.13;;
6420;SDS011;3243;50.958;7.012;2022-12-08T04:28:20;15.07;;;10.30;;
6420;SDS011;3243;50.958;7.012;2022-12-08T04:30:48;15.37;;;10.20;;
6420;SDS011;3243;50.958;7.012;2022-12-08T04:33:15;16.17;;;10.47;;
6420;SDS011;3243;50.958;7.012;2022-12-08T04:35:42;13.37;;;10.13;;
6420;SDS011;3243;50.958;7.012;2022-12-08T04:38:09;20.47;;;10.80;;
6420;SDS011;3243;50.958;7.012;2022-12-08T04:40:36;16.33;;;10.10;;
6420;SDS011;3243;50.958;7.012;2022-12-08T04:43:04;13.60;;;10.10;;
6420;SDS011;3243;50.958;7.012;2022-12-08T04:45:31;12.60;;;10.47;;
6420;SDS011;3243;50.958;7.012;2022-12-08T04:47:59;14.17;;;10.03;;
6420;SDS011;3243;50.958;7.012;2022-12-08T04:50:26;12.93;;;10.10;;
6420;SDS011;3243;50.958;7.012;2022-12-08T04:52:53;15.20;;;10.00;;
6420;SDS011;3243;50.958;7.012;2022-12-08T04:55:21;15.17;;;10.40;;
6420;SDS011;3243;50.958;7.012;2022-12-08T04:57:48;13.47;;;10.17;;
6420;SDS011;3243;50.958;7.012;2022-12-08T05:00:15;14.80;;;10.30;;
6420;SDS011;3243;50.958;7.012;2022-12-08T05:02:42;13.60;;;10.47;;
6420;SDS011;3243;50.958;7.012;2022-12-08T05:05:09;16.33;;;10.43;;
6420;SDS011;3243;50.958;7.012;2022-12-08T05:07:36;18.60;;;10.37;;
6420;SDS011;3243;50.958;7.012;2022-12-08T05:10:03;15.90;;;10.60;;
6420;SDS011;3243;50.958;7.012;2022-12-08T05:12:31;18.67;;;11.50;;
6420;SDS011;3243;50.958;7.012;2022-12-08T05:14:58;15.77;;;10.73;;
6420;SDS011;3243;50.958;7.012;2022-12-08T05:17:25;15.20;;;11.30;;
6420;SDS011;3243;50.958;7.012;2022-12-08T05:19:52;21.63;;;12.57;;
6420;SDS011;3243;50.958;7.012;2022-12-08T05:22:19;21.00;;;13.10;;
6420;SDS011;3243;50.958;7.012;2022-12-08T05:24:46;17.83;;;13.40;;
6420;SDS011;3243;50.958;7.012;2022-12-08T05:27:13;23.97;;;13.83;;
6420;SDS011;3243;50.958;7.012;2022-12-08T05:29:40;23.80;;;14.50;;
6420;SDS011;3243;50.958;7.012;2022-12-08T05:32:07;20.23;;;13.97;;
6420;SDS011;3243;50.958;7.012;2022-12-08T05:34:34;22.23;;;14.10;;
6420;SDS011;3243;50.958;7.012;2022-12-08T05:37:01;21.63;;;13.87;;
6420;SDS011;3243;50.958;7.012;2022-12-08T05:39:28;20.93;;;14.63;;
6420;SDS011;3243;50.958;7.012;2022-12-08T05:41:56;20.53;;;14.17;;
6420;SDS011;3243;50.958;7.012;2022-12-08T05:44:22;24.70;;;14.93;;
6420;SDS011;3243;50.958;7.012;2022-12-08T05:46:50;20.03;;;14.03;;
6420;SDS011;3243;50.958;7.012;2022-12-08T05:49:17;20.93;;;14.40;;
6420;SDS011;3243;50.958;7.012;2022-12-08T05:51:44;23.80;;;15.30;;
6420;SDS011;3243;50.958;7.012;2022-12-08T05:54:11;21.90;;;15.57;;
6420;SDS011;3243;50.958;7.012;2022-12-08T05:56:39;21.30;;;15.20;;
6420;SDS011;3243;50.958;7.012;2022-12-08T05:59:06;21.83;;;15.57;;
6420;SDS011;3243;50.958;7.012;2022-12-08T06:01:33;23.80;;;16.67;;
6420;SDS011;3243;50.958;7.012;2022-12-08T06:04:01;29.20;;;19.73;;
6420;SDS011;3243;50.958;7.012;2022-12-08T06:06:29;25.93;;;17.60;;
6420;SDS011;3243;50.958;7.012;2022-12-08T06:08:56;28.13;;;16.57;;
6420;SDS011;3243;50.958;7.012;2022-12-08T06:11:24;28.83;;;16.97;;
6420;SDS011;3243;50.958;7.012;2022-12-08T06:13:53;27.60;;;17.93;;
6420;SDS011;3243;50.958;7.012;2022-12-08T06:16:22;28.60;;;18.23;;
6420;SDS011;3243;50.958;7.012;2022-12-08T06:18:49;28.07;;;17.03;;
6420;SDS011;3243;50.958;7.012;2022-12-08T06:21:16;29.27;;;18.13;;
6420;SDS011;3243;50.958;7.012;2022-12-08T06:23:43;35.10;;;21.47;;
6420;SDS011;3243;50.958;7.012;2022-12-08T06:26:11;32.73;;;19.80;;
6420;SDS011;3243;50.958;7.012;2022-12-08T06:28:40;31.00;;;16.77;;
6420;SDS011;3243;50.958;7.012;2022-12-08T06:31:08;24.53;;;16.53;;
6420;SDS011;3243;50.958;7.012;2022-12-08T06:33:40;29.00;;;17.43;;
6420;SDS011;3243;50.958;7.012;2022-12-08T06:36:07;28.13;;;16.93;;
6420;SDS011;3243;50.958;7.012;2022-12-08T06:38:36;26.97;;;16.97;;
6420;SDS011;3243;50.958;7.012;2022-12-08T06:41:08;27.73;;;16.60;;
6420;SDS011;3243;50.958;7.012;2022-12-08T06:43:35;24.83;;;15.83;;
6420;SDS011;3243;50.958;7.012;2022-12-08T06:46:04;26.70;;;16.20;;
6420;SDS011;3243;50.958;7.012;2022-12-08T06:48:33;25.37;;;16.43;;
6420;SDS011;3243;50.958;7.012;2022-12-08T06:51:14;29.80;;;16.90;;
6420;SDS011;3243;50.958;7.012;2022-12-08T06:53:45;26.37;;;15.73;;
6420;SDS011;3243;50.958;7.012;2022-12-08T06:56:12;29.03;;;16.50;;
6420;SDS011;3243;50.958;7.012;2022-12-08T06:58:41;26.17;;;16.10;;
6420;SDS011;3243;50.958;7.012;2022-12-08T07:01:15;25.13;;;16.40;;
6420;SDS011;3243;50.958;7.012;2022-12-08T07:03:42;24.67;;;15.83;;
6420;SDS011;3243;50.958;7.012;2022-12-08T07:06:13;23.63;;;15.97;;
6420;SDS011;3243;50.958;7.012;2022-12-08T07:08:41;28.03;;;16.73;;
6420;SDS011;3243;50.958;7.012;2022-12-08T07:11:09;25.90;;;15.87;;
6420;SDS011;3243;50.958;7.012;2022-12-08T07:13:43;23.83;;;15.30;;
6420;SDS011;3243;50.958;7.012;2022-12-08T07:16:10;27.63;;;16.43;;
6420;SDS011;3243;50.958;7.012;2022-12-08T07:18:38;25.90;;;15.57;;
6420;SDS011;3243;50.958;7.012;2022-12-08T07:21:05;29.90;;;15.53;;
6420;SDS011;3243;50.958;7.012;2022-12-08T07:23:36;24.53;;;16.00;;
6420;SDS011;3243;50.958;7.012;2022-12-08T07:26:04;26.60;;;15.37;;
6420;SDS011;3243;50.958;7.012;2022-12-08T07:28:33;25.23;;;15.77;;
6420;SDS011;3243;50.958;7.012;2022-12-08T07:31:00;28.73;;;16.13;;
6420;SDS011;3243;50.958;7.012;2022-12-08T07:33:27;23.20;;;14.97;;
6420;SDS011;3243;50.958;7.012;2022-12-08T07:36:01;21.63;;;14.53;;
6420;SDS011;3243;50.958;7.012;2022-12-08T07:38:30;22.67;;;14.47;;
6420;SDS011;3243;50.958;7.012;2022-12-08T07:40:57;23.03;;;15.10;;
6420;SDS011;3243;50.958;7.012;2022-12-08T07:43:24;23.27;;;15.10;;
6420;SDS011;3243;50.958;7.012;2022-12-08T07:45:51;24.30;;;14.97;;
6420;SDS011;3243;50.958;7.012;2022-12-08T07:48:18;25.03;;;15.93;;
6420;SDS011;3243;50.958;7.012;2022-12-08T07:50:45;23.80;;;15.43;;
6420;SDS011;3243;50.958;7.012;2022-12-08T07:53:13;21.80;;;14.50;;
6420;SDS011;3243;50.958;7.012;2022-12-08T07:55:40;27.97;;;16.03;;
6420;SDS011;3243;50.958;7.012;2022-12-08T07:58:08;25.70;;;14.67;;
6420;SDS011;3243;50.958;7.012;2022-12-08T08:00:35;24.63;;;15.33;;
6420;SDS011;3243;50.958;7.012;2022-12-08T08:03:02;21.03;;;13.40;;
6420;SDS011;3243;50.958;7.012;2022-12-08T08:05:29;20.87;;;13.63;;
6420;SDS011;3243;50.958;7.012;2022-12-08T08:07:56;20.23;;;13.80;;
6420;SDS011;3243;50.958;7.012;2022-12-08T08:10:23;21.83;;;13.57;;
6420;SDS011;3243;50.958;7.012;2022-12-08T08:12:50;22.77;;;13.13;;
6420;SDS011;3243;50.958;7.012;2022-12-08T08:15:17;21.20;;;14.07;;
6420;SDS011;3243;50.958;7.012;2022-12-08T08:17:48;27.00;;;15.60;;
6420;SDS011;3243;50.958;7.012;2022-12-08T08:20:16;21.33;;;14.57;;
6420;SDS011;3243;50.958;7.012;2022-12-08T08:22:44;25.03;;;14.67;;
6420;SDS011;3243;50.958;7.012;2022-12-08T08:25:12;28.37;;;15.23;;
6420;SDS011;3243;50.958;7.012;2022-12-08T08:27:39;27.60;;;16.37;;
6420;SDS011;3243;50.958;7.012;2022-12-08T08:30:07;22.80;;;15.57;;
6420;SDS011;3243;50.958;7.012;2022-12-08T08:32:35;21.60;;;15.53;;
6420;SDS011;3243;50.958;7.012;2022-12-08T08:35:02;26.93;;;15.93;;
6420;SDS011;3243;50.958;7.012;2022-12-08T08:37:30;24.70;;;16.20;;
6420;SDS011;3243;50.958;7.012;2022-12-08T08:39:56;21.27;;;14.83;;
6420;SDS011;3243;50.958;7.012;2022-12-08T08:42:23;21.93;;;15.70;;
6420;SDS011;3243;50.958;7.012;2022-12-08T08:44:50;21.10;;;14.80;;
6420;SDS011;3243;50.958;7.012;2022-12-08T08:47:17;24.53;;;15.37;;
6420;SDS011;3243;50.958;7.012;2022-12-08T08:49:44;23.77;;;14.87;;
6420;SDS011;3243;50.958;7.012;2022-12-08T08:52:11;22.33;;;14.93;;
6420;SDS011;3243;50.958;7.012;2022-12-08T08:54:38;20.70;;;14.77;;
6420;SDS011;3243;50.958;7.012;2022-12-08T08:57:05;22.10;;;14.00;;
6420;SDS011;3243;50.958;7.012;2022-12-08T08:59:32;21.40;;;14.20;;
6420;SDS011;3243;50.958;7.012;2022-12-08T09:01:59;21.43;;;13.23;;
6420;SDS011;3243;50.958;7.012;2022-12-08T09:04:26;21.33;;;13.77;;
6420;SDS011;3243;50.958;7.012;2022-12-08T09:06:53;17.03;;;12.17;;
6420;SDS011;3243;50.958;7.012;2022-12-08T09:09:20;18.53;;;12.53;;
6420;SDS011;3243;50.958;7.012;2022-12-08T09:11:47;18.70;;;12.60;;
6420;SDS011;3243;50.958;7.012;2022-12-08T09:14:13;19.77;;;12.40;;
6420;SDS011;3243;50.958;7.012;2022-12-08T09:16:40;19.40;;;12.67;;
6420;SDS011;3243;50.958;7.012;2022-12-08T09:19:08;20.83;;;13.10;;
6420;SDS011;3243;50.958;7.012;2022-12-08T09:21:35;16.67;;;11.77;;
6420;SDS011;3243;50.958;7.012;2022-12-08T09:24:02;20.93;;;11.67;;
6420;SDS011;3243;50.958;7.012;2022-12-08T09:26:29;19.73;;;12.30;;
6420;SDS011;3243;50.958;7.012;2022-12-08T09:28:56;18.43;;;11.40;;
6420;SDS011;3243;50.958;7.012;2022-12-08T09:31:23;17.80;;;11.07;;
6420;SDS011;3243;50.958;7.012;2022-12-08T09:33:50;15.90;;;10.97;;
6420;SDS011;3243;50.958;7.012;2022-12-08T09:36:17;16.27;;;10.13;;
6420;SDS011;3243;50.958;7.012;2022-12-08T09:38:45;13.03;;;9.63;;
6420;SDS011;3243;50.958;7.012;2022-12-08T09:47:00;12.13;;;8.77;;
6420;SDS011;3243;50.958;7.012;2022-12-08T09:49:38;12.70;;;9.03;;
6420;SDS011;3243;50.958;7.012;2022-12-08T09:52:18;11.43;;;8.07;;
6420;SDS011;3243;50.958;7.012;2022-12-08T09:54:50;11.37;;;7.93;;
6420;SDS011;3243;50.958;7.012;2022-12-08T09:57:18;14.53;;;8.67;;
6420;SDS011;3243;50.958;7.012;2022-12-08T09:59:49;11.70;;;8.20;;
6420;SDS011;3243;50.958;7.012;2022-12-08T10:02:21;10.73;;;7.80;;
6420;SDS011;3243;50.958;7.012;2022-12-08T10:04:50;12.87;;;7.87;;
6420;SDS011;3243;50.958;7.012;2022-12-08T10:10:04;9.60;;;6.87;;
6420;SDS011;3243;50.958;7.012;2022-12-08T10:12:42;10.07;;;6.03;;
6420;SDS011;3243;50.958;7.012;2022-12-08T10:15:31;7.73;;;5.00;;
6420;SDS011;3243;50.958;7.012;2022-12-08T10:18:20;7.23;;;5.07;;
6420;SDS011;3243;50.958;7.012;2022-12-08T10:20:50;8.30;;;4.70;;
6420;SDS011;3243;50.958;7.012;2022-12-08T10:23:20;8.10;;;4.67;;
6420;SDS011;3243;50.958;7.012;2022-12-08T10:25:49;7.50;;;5.57;;
6420;SDS011;3243;50.958;7.012;2022-12-08T10:28:16;8.60;;;4.87;;
6420;SDS011;3243;50.958;7.012;2022-12-08T10:30:44;6.97;;;4.93;;
6420;SDS011;3243;50.958;7.012;2022-12-08T10:33:18;8.03;;;5.30;;
6420;SDS011;3243;50.958;7.012;2022-12-08T10:38:18;7.93;;;5.30;;
6420;SDS011;3243;50.958;7.012;2022-12-08T10:40:45;10.53;;;7.00;;
6420;SDS011;3243;50.958;7.012;2022-12-08T10:43:14;7.77;;;5.90;;
6420;SDS011;3243;50.958;7.012;2022-12-08T10:45:43;12.63;;;6.67;;
6420;SDS011;3243;50.958;7.012;2022-12-08T10:53:25;11.13;;;7.03;;
6420;SDS011;3243;50.958;7.012;2022-12-08T11:03:51;17.73;;;8.67;;
6420;SDS011;3243;50.958;7.012;2022-12-08T11:06:24;11.80;;;8.33;;
6420;SDS011;3243;50.958;7.012;2022-12-08T11:08:56;11.20;;;7.40;;
6420;SDS011;3243;50.958;7.012;2022-12-08T11:11:39;10.97;;;7.50;;
6420;SDS011;3243;50.958;7.012;2022-12-08T11:14:44;13.33;;;7.80;;
6420;SDS011;3243;50.958;7.012;2022-12-08T11:17:04;10.60;;;7.20;;
6420;SDS011;3243;50.958;7.012;2022-12-08T11:19:41;9.97;;;6.47;;
6420;SDS011;3243;50.958;7.012;2022-12-08T11:24:46;11.07;;;6.53;;
6420;SDS011;3243;50.958;7.012;2022-12-08T11:27:23;10.13;;;5.87;;
6420;SDS011;3243;50.958;7.012;2022-12-08T11:29:50;6.27;;;4.37;;
6420;SDS011;3243;50.958;7.012;2022-12-08T11:32:17;7.83;;;4.73;;
6420;SDS011;3243;50.958;7.012;2022-12-08T11:40:02;8.13;;;5.03;;
6420;SDS011;3243;50.958;7.012;2022-12-08T11:42:34;9.83;;;5.83;;
6420;SDS011;3243;50.958;7.012;2022-12-08T11:45:20;8.57;;;5.17;;
6420;SDS011;3243;50.958;7.012;2022-12-08T11:47:56;7.83;;;5.80;;
6420;SDS011;3243;50.958;7.012;2022-12-08T11:50:46;9.43;;;5.47;;
6420;SDS011;3243;50.958;7.012;2022-12-08T11:53:22;5.90;;;3.83;;
6420;SDS011;3243;50.958;7.012;2022-12-08T11:55:57;4.87;;;3.20;;
6420;SDS011;3243;50.958;7.012;2022-12-08T11:58:37;6.60;;;3.43;;
6420;SDS011;3243;50.958;7.012;2022-12-08T12:01:12;3.93;;;3.00;;
6420;SDS011;3243;50.958;7.012;2022-12-08T12:03:46;4.93;;;3.40;;
6420;SDS011;3243;50.958;7.012;2022-12-08T12:06:53;4.13;;;3.10;;
6420;SDS011;3243;50.958;7.012;2022-12-08T12:12:34;7.17;;;3.90;;
6420;SDS011;3243;50.958;7.012;2022-12-08T12:20:57;8.20;;;4.33;;
6420;SDS011;3243;50.958;7.012;2022-12-08T12:23:30;9.17;;;4.90;;
6420;SDS011;3243;50.958;7.012;2022-12-08T12:26:20;9.97;;;5.93;;
6420;SDS011;3243;50.958;7.012;2022-12-08T12:31:18;14.70;;;6.10;;
6420;SDS011;3243;50.958;7.012;2022-12-08T12:33:49;12.47;;;6.27;;
6420;SDS011;3243;50.958;7.012;2022-12-08T12:36:18;12.57;;;6.27;;
6420;SDS011;3243;50.958;7.012;2022-12-08T12:38:47;16.70;;;9.17;;
6420;SDS011;3243;50.958;7.012;2022-12-08T12:41:33;16.27;;;6.97;;
6420;SDS011;3243;50.958;7.012;2022-12-08T12:46:41;15.43;;;7.97;;
6420;SDS011;3243;50.958;7.012;2022-12-08T12:54:44;13.87;;;7.67;;
6420;SDS011;3243;50.958;7.012;2022-12-08T12:57:35;13.23;;;7.87;;
6420;SDS011;3243;50.958;7.012;2022-12-08T13:00:18;13.97;;;8.63;;
6420;SDS011;3243;50.958;7.012;2022-12-08T13:02:47;10.90;;;7.37;;
6420;SDS011;3243;50.958;7.012;2022-12-08T13:10:35;14.50;;;7.83;;
6420;SDS011;3243;50.958;7.012;2022-12-08T13:15:38;14.70;;;8.37;;
6420;SDS011;3243;50.958;7.012;2022-12-08T13:18:06;10.10;;;6.77;;
6420;SDS011;3243;50.958;7.012;2022-12-08T13:20:53;15.37;;;7.43;;
6420;SDS011;3243;50.958;7.012;2022-12-08T13:26:17;14.63;;;7.00;;
6420;SDS011;3243;50.958;7.012;2022-12-08T13:32:06;12.67;;;7.53;;
6420;SDS011;3243;50.958;7.012;2022-12-08T13:36:49;13.07;;;7.33;;
6420;SDS011;3243;50.958;7.012;2022-12-08T13:39:25;11.67;;;6.80;;
6420;SDS011;3243;50.958;7.012;2022-12-08T13:42:14;9.93;;;6.50;;
6420;SDS011;3243;50.958;7.012;2022-12-08T13:44:52;9.97;;;6.47;;
6420;SDS011;3243;50.958;7.012;2022-12-08T13:51:06;9.50;;;6.20;;
6420;SDS011;3243;50.958;7.012;2022-12-08T13:56:54;10.23;;;5.50;;
6420;SDS011;3243;50.958;7.012;2022-12-08T13:59:33;13.47;;;6.27;;
6420;SDS011;3243;50.958;7.012;2022-12-08T14:02:11;12.10;;;6.10;;
6420;SDS011;3243;50.958;7.012;2022-12-08T14:04:54;10.10;;;6.37;;
6420;SDS011;3243;50.958;7.012;2022-12-08T14:07:42;13.97;;;6.47;;
6420;SDS011;3243;50.958;7.012;2022-12-08T14:10:13;13.27;;;6.83;;
6420;SDS011;3243;50.958;7.012;2022-12-08T14:12:50;16.57;;;8.63;;
6420;SDS011;3243;50.958;7.012;2022-12-08T14:15:20;13.97;;;8.27;;
6420;SDS011;3243;50.958;7.012;2022-12-08T14:17:53;17.03;;;11.57;;
6420;SDS011;3243;50.958;7.012;2022-12-08T14:20:31;12.97;;;7.37;;
6420;SDS011;3243;50.958;7.012;2022-12-08T14:23:19;12.93;;;7.70;;
6420;SDS011;3243;50.958;7.012;2022-12-08T14:25:46;12.93;;;7.27;;
6420;SDS011;3243;50.958;7.012;2022-12-08T14:28:13;10.43;;;6.60;;
6420;SDS011;3243;50.958;7.012;2022-12-08T14:30:40;13.63;;;6.23;;
6420;SDS011;3243;50.958;7.012;2022-12-08T14:33:10;11.53;;;5.70;;
6420;SDS011;3243;50.958;7.012;2022-12-08T14:35:39;11.73;;;5.50;;
6420;SDS011;3243;50.958;7.012;2022-12-08T14:38:13;9.53;;;4.97;;
6420;SDS011;3243;50.958;7.012;2022-12-08T14:40:43;8.77;;;5.50;;
6420;SDS011;3243;50.958;7.012;2022-12-08T14:43:13;15.13;;;5.07;;
6420;SDS011;3243;50.958;7.012;2022-12-08T14:50:44;15.07;;;5.47;;
6420;SDS011;3243;50.958;7.012;2022-12-08T14:54:13;9.97;;;5.77;;
6420;SDS011;3243;50.958;7.012;2022-12-08T15:01:51;9.33;;;5.00;;
6420;SDS011;3243;50.958;7.012;2022-12-08T15:04:28;8.13;;;5.17;;
6420;SDS011;3243;50.958;7.012;2022-12-08T15:06:58;10.00;;;5.40;;
6420;SDS011;3243;50.958;7.012;2022-12-08T15:09:44;10.93;;;5.63;;
6420;SDS011;3243;50.958;7.012;2022-12-08T15:14:41;9.73;;;4.60;;
6420;SDS011;3243;50.958;7.012;2022-12-08T15:22:55;6.73;;;4.80;;
6420;SDS011;3243;50.958;7.012;2022-12-08T15:25:22;10.37;;;5.07;;
6420;SDS011;3243;50.958;7.012;2022-12-08T15:27:50;7.47;;;4.83;;
6420;SDS011;3243;50.958;7.012;2022-12-08T15:30:21;9.80;;;5.37;;
6420;SDS011;3243;50.958;7.012;2022-12-08T15:32:48;8.60;;;4.93;;
6420;SDS011;3243;50.958;7.012;2022-12-08T15:35:17;9.43;;;5.00;;
6420;SDS011;3243;50.958;7.012;2022-12-08T15:37:44;7.47;;;5.07;;
6420;SDS011;3243;50.958;7.012;2022-12-08T15:40:18;8.13;;;5.10;;
6420;SDS011;3243;50.958;7.012;2022-12-08T15:42:46;9.37;;;6.03;;
6420;SDS011;3243;50.958;7.012;2022-12-08T15:45:14;8.17;;;5.17;;
6420;SDS011;3243;50.958;7.012;2022-12-08T15:47:42;10.23;;;5.10;;
6420;SDS011;3243;50.958;7.012;2022-12-08T15:50:14;10.80;;;5.50;;
6420;SDS011;3243;50.958;7.012;2022-12-08T15:52:42;10.50;;;5.33;;
6420;SDS011;3243;50.958;7.012;2022-12-08T15:55:13;10.27;;;5.70;;
6420;SDS011;3243;50.958;7.012;2022-12-08T15:57:42;10.30;;;5.27;;
6420;SDS011;3243;50.958;7.012;2022-12-08T16:00:31;6.97;;;4.43;;
6420;SDS011;3243;50.958;7.012;2022-12-08T16:06:07;11.40;;;5.17;;
6420;SDS011;3243;50.958;7.012;2022-12-08T16:09:02;11.43;;;5.67;;
6420;SDS011;3243;50.958;7.012;2022-12-08T16:11:37;8.93;;;4.70;;
6420;SDS011;3243;50.958;7.012;2022-12-08T16:14:33;9.17;;;4.90;;
6420;SDS011;3243;50.958;7.012;2022-12-08T16:17:20;6.37;;;4.50;;
6420;SDS011;3243;50.958;7.012;2022-12-08T16:19:47;10.00;;;5.47;;
6420;SDS011;3243;50.958;7.012;2022-12-08T16:22:15;11.80;;;6.50;;
6420;SDS011;3243;50.958;7.012;2022-12-08T16:25:03;12.27;;;6.03;;
6420;SDS011;3243;50.958;7.012;2022-12-08T16:27:49;11.77;;;6.40;;
6420;SDS011;3243;50.958;7.012;2022-12-08T16:30:37;11.80;;;6.77;;
6420;SDS011;3243;50.958;7.012;2022-12-08T16:33:04;11.40;;;6.20;;
6420;SDS011;3243;50.958;7.012;2022-12-08T16:35:31;13.40;;;6.50;;
6420;SDS011;3243;50.958;7.012;2022-12-08T16:37:58;12.07;;;5.80;;
6420;SDS011;3243;50.958;7.012;2022-12-08T16:40:25;11.03;;;5.80;;
6420;SDS011;3243;50.958;7.012;2022-12-08T16:42:52;10.93;;;6.03;;
6420;SDS011;3243;50.958;7.012;2022-12-08T16:47:50;11.40;;;6.47;;
6420;SDS011;3243;50.958;7.012;2022-12-08T16:52:56;10.73;;;6.37;;
6420;SDS011;3243;50.958;7.012;2022-12-08T16:55:30;10.50;;;6.17;;
6420;SDS011;3243;50.958;7.012;2022-12-08T16:57:57;13.00;;;5.77;;
6420;SDS011;3243;50.958;7.012;2022-12-08T17:00:25;11.17;;;6.10;;
6420;SDS011;3243;50.958;7.012;2022-12-08T17:02:53;9.87;;;6.30;;
6420;SDS011;3243;50.958;7.012;2022-12-08T17:05:22;13.93;;;6.67;;
6420;SDS011;3243;50.958;7.012;2022-12-08T17:07:50;11.90;;;7.03;;
6420;SDS011;3243;50.958;7.012;2022-12-08T17:10:19;11.80;;;6.87;;
6420;SDS011;3243;50.958;7.012;2022-12-08T17:12:48;10.03;;;6.10;;
6420;SDS011;3243;50.958;7.012;2022-12-08T17:15:17;11.77;;;6.67;;
6420;SDS011;3243;50.958;7.012;2022-12-08T17:17:45;9.13;;;6.40;;
6420;SDS011;3243;50.958;7.012;2022-12-08T17:20:14;13.03;;;7.13;;
6420;SDS011;3243;50.958;7.012;2022-12-08T17:22:43;13.83;;;8.93;;
6420;SDS011;3243;50.958;7.012;2022-12-08T17:25:10;13.83;;;7.33;;
6420;SDS011;3243;50.958;7.012;2022-12-08T17:27:38;9.87;;;6.77;;
6420;SDS011;3243;50.958;7.012;2022-12-08T17:30:06;10.20;;;6.80;;